Time;durP1;ratioP1;P1;durP2;ratioP2;P2;SDS_P1;SDS_P2;PMS_P1;PMS_P2;Temp;Humidity;BMP_temperature;BMP_pressure;BME280_temperature;BME280_humidity;BME280_pressure;Samples;Min_cycle;Max_cycle;Signal;HPM_P1;HPM_P2
2023/03/10 00:01:14;;;;;;;7.68;4.72;;;;;;;7.50;77.71;96844.03;4970078;28;20118;-81
2023/03/10 00:03:40;;;;;;;9.55;4.70;;;;;;;7.51;77.67;96838.25;4969571;28;20086;-81
2023/03/10 00:06:06;;;;;;;17.75;7.85;;;;;;;7.53;77.65;96832.47;4968207;28;20050;-80
2023/03/10 00:08:31;;;;;;;21.98;8.50;;;;;;;7.53;76.93;96835.22;4969575;28;20027;-81
2023/03/10 00:10:57;;;;;;;16.15;6.75;;;;;;;7.55;77.01;96828.31;4969532;28;20054;-81
2023/03/10 00:13:22;;;;;;;16.45;6.93;;;;;;;7.55;76.77;96819.31;4969283;28;20034;-81
2023/03/10 00:15:48;;;;;;;13.95;6.25;;;;;;;7.55;76.94;96820.13;4970157;28;20054;-81
2023/03/10 00:18:13;;;;;;;15.43;7.05;;;;;;;7.54;77.22;96823.97;4969797;28;20033;-81
2023/03/10 00:20:38;;;;;;;17.17;7.40;;;;;;;7.54;76.93;96823.19;4969769;28;20105;-81
2023/03/10 00:23:05;;;;;;;18.58;9.80;;;;;;;7.56;77.17;96820.91;4969070;28;20483;-80
2023/03/10 00:25:31;;;;;;;12.10;7.03;;;;;;;7.53;76.79;96825.09;4984615;28;20054;-81
2023/03/10 00:27:56;;;;;;;8.48;5.00;;;;;;;7.54;77.00;96823.97;4969399;28;20035;-80
2023/03/10 00:30:22;;;;;;;8.95;4.90;;;;;;;7.55;76.45;96828.31;4969656;28;20031;-80
2023/03/10 00:32:49;;;;;;;13.18;6.38;;;;;;;7.56;76.61;96818.19;4969630;28;20019;-81
2023/03/10 00:35:15;;;;;;;15.02;5.88;;;;;;;7.58;76.15;96824.94;4966612;28;20069;-81
2023/03/10 00:37:40;;;;;;;15.02;6.53;;;;;;;7.62;76.15;96830.56;4968910;28;20050;-81
2023/03/10 00:40:14;;;;;;;13.02;5.75;;;;;;;7.66;76.83;96825.28;4978511;28;20475;-81
2023/03/10 00:42:40;;;;;;;10.82;5.43;;;;;;;7.69;76.17;96820.00;4969456;28;20117;-81
2023/03/10 00:45:06;;;;;;;13.65;6.15;;;;;;;7.74;76.37;96822.56;4969593;28;20501;-82
2023/03/10 00:47:32;;;;;;;11.70;5.50;;;;;;;7.78;75.98;96811.81;4969303;28;20034;-82
2023/03/10 00:49:57;;;;;;;12.48;5.75;;;;;;;7.83;76.20;96813.59;4969216;28;20394;-81
2023/03/10 00:52:23;;;;;;;12.50;5.38;;;;;;;7.86;75.81;96802.84;4969242;28;20084;-81
2023/03/10 00:54:48;;;;;;;8.80;4.15;;;;;;;7.89;75.29;96802.22;4969046;28;20027;-81
2023/03/10 00:57:14;;;;;;;7.82;4.38;;;;;;;7.93;75.17;96807.03;4978394;28;20059;-82
2023/03/10 00:59:39;;;;;;;11.50;5.20;;;;;;;7.94;75.88;96804.00;4969108;28;20464;-82
2023/03/10 01:02:04;;;;;;;16.30;6.32;;;;;;;7.96;75.55;96796.25;4969153;28;21093;-81
2023/03/10 01:04:30;;;;;;;19.48;5.55;;;;;;;7.97;74.78;96786.94;4969184;28;20098;-81
2023/03/10 01:06:55;;;;;;;12.13;5.07;;;;;;;7.99;74.81;96789.38;4966426;28;20047;-81
2023/03/10 01:09:20;;;;;;;10.25;4.15;;;;;;;7.97;74.70;96778.75;4968953;28;20109;-82
2023/03/10 01:11:46;;;;;;;11.77;4.65;;;;;;;7.99;74.37;96792.09;4969481;28;20114;-81
2023/03/10 01:14:14;;;;;;;9.23;4.00;;;;;;;7.97;74.70;96786.94;4975815;28;20552;-81
2023/03/10 01:16:39;;;;;;;7.53;3.40;;;;;;;7.94;74.49;96773.97;4976687;28;20074;-81
2023/03/10 01:19:05;;;;;;;8.65;3.58;;;;;;;7.92;74.57;96776.22;4972596;28;20042;-81
2023/03/10 01:21:34;;;;;;;10.07;5.43;;;;;;;7.92;74.09;96786.31;4973607;28;20023;-81
2023/03/10 01:24:00;;;;;;;13.15;6.15;;;;;;;7.90;74.11;96781.19;4973529;28;20035;-82
2023/03/10 01:26:26;;;;;;;7.18;3.30;;;;;;;7.88;73.93;96770.56;4973826;28;20050;-81
2023/03/10 01:28:51;;;;;;;12.15;3.85;;;;;;;7.88;74.14;96783.44;4974277;28;20077;-82
2023/03/10 01:31:18;;;;;;;6.63;2.80;;;;;;;7.87;74.16;96779.09;4975190;28;20033;-82
2023/03/10 01:33:45;;;;;;;5.55;3.08;;;;;;;7.86;74.24;96782.94;4972106;28;20041;-82
2023/03/10 01:36:20;;;;;;;5.15;2.22;;;;;;;7.84;73.70;96785.19;4972102;28;20031;-82
2023/03/10 01:38:46;;;;;;;6.55;3.13;;;;;;;7.84;73.96;96782.47;4972586;28;20035;-82
2023/03/10 01:41:12;;;;;;;9.52;3.72;;;;;;;7.84;73.44;96771.53;4973561;28;20033;-82
2023/03/10 01:43:41;;;;;;;5.05;2.40;;;;;;;7.83;73.84;96769.94;4972915;28;20244;-82
2023/03/10 01:46:25;;;;;;;9.60;3.95;;;;;;;7.81;73.67;96762.06;4972414;28;20101;-82
2023/03/10 01:48:52;;;;;;;5.60;2.65;;;;;;;7.83;73.52;96759.81;4971758;28;20137;-81
2023/03/10 01:51:18;;;;;;;5.97;3.00;;;;;;;7.80;73.45;96756.94;4972266;28;20527;-82
2023/03/10 01:53:44;;;;;;;39.53;16.80;;;;;;;7.82;73.49;96751.97;4971528;28;20509;-82
2023/03/10 01:56:09;;;;;;;7.97;4.18;;;;;;;7.84;73.37;96749.72;4973742;28;20110;-82
2023/03/10 01:58:42;;;;;;;11.68;4.00;;;;;;;7.84;72.97;96752.44;4971779;28;20390;-82
2023/03/10 02:01:09;;;;;;;10.57;3.70;;;;;;;7.84;73.44;96741.53;4970434;28;20018;-82
2023/03/10 02:03:43;;;;;;;12.40;5.20;;;;;;;7.84;73.51;96742.31;4971231;28;20033;-81
2023/03/10 02:06:11;;;;;;;7.07;3.10;;;;;;;7.84;73.03;96758.69;4971874;28;20035;-82
2023/03/10 02:08:41;;;;;;;13.70;5.80;;;;;;;7.85;72.68;96748.59;4971465;28;20482;-81
2023/03/10 02:11:06;;;;;;;4.50;2.38;;;;;;;7.84;73.27;96739.59;4971650;28;20435;-81
2023/03/10 02:13:32;;;;;;;9.88;4.10;;;;;;;7.85;73.22;96733.00;4971741;28;20139;-82
2023/03/10 02:15:57;;;;;;;7.28;3.20;;;;;;;7.86;72.94;96729.16;4971515;28;20030;-81
2023/03/10 02:18:24;;;;;;;7.72;3.03;;;;;;;7.86;72.53;96728.34;4978925;28;20162;-81
2023/03/10 02:21:02;;;;;;;7.78;3.08;;;;;;;7.83;73.20;96732.50;4971517;28;20467;-82
2023/03/10 02:23:39;;;;;;;7.53;2.88;;;;;;;7.81;72.57;96734.75;4971005;28;20118;-81
2023/03/10 02:26:19;;;;;;;6.82;3.20;;;;;;;7.83;72.77;96737.97;4971226;28;20137;-82
2023/03/10 02:28:46;;;;;;;7.10;3.65;;;;;;;7.83;72.73;96737.97;4971583;28;20031;-82
2023/03/10 02:31:12;;;;;;;4.75;2.53;;;;;;;7.81;72.93;96728.50;4971706;28;20019;-82
2023/03/10 02:33:40;;;;;;;4.55;2.47;;;;;;;7.81;73.05;96726.56;4977111;28;20725;-82
2023/03/10 02:36:26;;;;;;;7.20;3.72;;;;;;;7.79;72.54;96728.03;4977634;28;20394;-81
2023/03/10 02:38:51;;;;;;;8.88;3.95;;;;;;;7.80;72.62;96729.63;4970409;28;20043;-82
2023/03/10 02:41:27;;;;;;;7.88;3.65;;;;;;;7.78;72.98;96726.44;4970824;28;20031;-82
2023/03/10 02:43:55;;;;;;;8.40;4.63;;;;;;;7.78;72.80;96727.22;4970412;28;20523;-82
2023/03/10 02:46:21;;;;;;;9.35;4.28;;;;;;;7.77;72.69;96719.34;4970716;28;20034;-82
2023/03/10 02:48:46;;;;;;;7.18;4.22;;;;;;;7.72;72.40;96715.66;4971587;28;20037;-82
2023/03/10 02:51:17;;;;;;;5.97;3.38;;;;;;;7.71;72.81;96719.50;4970719;28;20022;-82
2023/03/10 02:53:42;;;;;;;8.20;3.78;;;;;;;7.69;72.61;96713.56;4970657;28;20142;-82
2023/03/10 02:56:08;;;;;;;10.95;4.60;;;;;;;7.67;72.70;96706.84;4970567;28;20519;-82
2023/03/10 02:58:34;;;;;;;9.68;3.90;;;;;;;7.64;72.73;96704.75;4970931;28;20077;-82
2023/03/10 03:00:59;;;;;;;9.10;7.00;;;;;;;7.63;73.01;96703.94;4970789;28;20026;-82
2023/03/10 03:03:25;;;;;;;8.45;5.40;;;;;;;7.58;72.15;96699.44;4979842;28;20493;-82
2023/03/10 03:05:52;;;;;;;5.68;4.30;;;;;;;7.59;72.44;96705.69;4971552;28;20039;-82
2023/03/10 03:08:18;;;;;;;6.75;3.60;;;;;;;7.57;72.51;96697.84;4970854;28;20038;-82
2023/03/10 03:10:43;;;;;;;6.88;4.20;;;;;;;7.56;72.69;96684.50;4970597;28;20397;-82
2023/03/10 03:13:09;;;;;;;10.73;5.15;;;;;;;7.53;72.59;96685.19;4969858;28;20049;-82
2023/03/10 03:15:35;;;;;;;8.30;3.97;;;;;;;7.51;72.46;96674.56;4970611;28;20077;-82
2023/03/10 03:18:01;;;;;;;6.63;4.03;;;;;;;7.50;72.57;96672.19;4968487;28;20038;-82
2023/03/10 03:20:28;;;;;;;7.57;4.20;;;;;;;7.49;72.75;96674.09;4970919;28;20452;-83
2023/03/10 03:22:54;;;;;;;8.77;5.38;;;;;;;7.45;72.40;96663.03;4971196;28;20027;-82
2023/03/10 03:25:21;;;;;;;9.68;4.55;;;;;;;7.44;72.81;96661.41;4972283;28;20039;-82
2023/03/10 03:27:47;;;;;;;9.85;5.03;;;;;;;7.42;72.50;96660.13;4970109;28;20038;-82
2023/03/10 03:30:16;;;;;;;9.70;5.35;;;;;;;7.40;72.61;96665.09;4969710;28;20035;-82
2023/03/10 03:32:42;;;;;;;11.60;6.40;;;;;;;7.36;72.20;96654.03;4970151;28;20035;-83
2023/03/10 03:35:10;;;;;;;11.23;6.60;;;;;;;7.35;72.42;96652.41;4975103;28;20081;-83
2023/03/10 03:37:36;;;;;;;9.85;6.75;;;;;;;7.33;72.34;96654.66;4970018;28;20038;-84
2023/03/10 03:40:01;;;;;;;8.88;5.10;;;;;;;7.28;72.32;96649.34;4969869;28;20073;-83
2023/03/10 03:42:26;;;;;;;9.38;5.93;;;;;;;7.26;72.17;96648.88;4969533;28;20022;-82
2023/03/10 03:44:52;;;;;;;9.88;5.50;;;;;;;7.21;72.28;96640.84;4972295;28;20177;-82
2023/03/10 03:47:17;;;;;;;9.27;5.80;;;;;;;7.19;72.62;96634.91;4969700;28;20475;-83
2023/03/10 03:49:43;;;;;;;10.65;6.55;;;;;;;7.18;72.27;96636.03;4969731;28;20087;-83
2023/03/10 03:52:08;;;;;;;13.48;6.28;;;;;;;7.14;72.06;96633.16;4969509;28;20480;-84
2023/03/10 03:54:34;;;;;;;9.68;5.63;;;;;;;7.10;72.25;96635.72;4969634;28;20843;-84
2023/03/10 03:56:59;;;;;;;10.90;5.40;;;;;;;7.09;72.52;96627.84;4969614;28;20041;-83
2023/03/10 03:59:25;;;;;;;10.18;5.18;;;;;;;7.06;72.33;96617.56;4969835;28;20035;-83
2023/03/10 04:01:50;;;;;;;9.90;5.10;;;;;;;7.03;71.78;96615.47;4969620;28;20165;-83
2023/03/10 04:04:15;;;;;;;9.60;6.60;;;;;;;6.98;72.09;96611.78;4969033;28;20395;-83
2023/03/10 04:06:41;;;;;;;14.65;8.75;;;;;;;6.95;72.22;96615.16;4969519;28;20027;-84
2023/03/10 04:09:09;;;;;;;16.15;8.18;;;;;;;6.93;72.28;96613.88;4970263;28;20034;-83
2023/03/10 04:11:34;;;;;;;13.07;6.68;;;;;;;6.89;72.03;96611.00;4969278;28;20554;-83
2023/03/10 04:14:00;;;;;;;14.38;8.23;;;;;;;6.84;72.06;96601.03;4971984;28;20085;-83
2023/03/10 04:16:25;;;;;;;13.80;7.80;;;;;;;6.82;72.14;96603.25;4969357;28;20503;-83
2023/03/10 04:18:51;;;;;;;11.02;7.78;;;;;;;6.79;72.12;96611.28;4969579;28;20086;-83
2023/03/10 04:21:16;;;;;;;8.68;6.40;;;;;;;6.75;72.17;96613.03;4969016;28;20113;-83
2023/03/10 04:23:42;;;;;;;7.50;5.40;;;;;;;6.75;72.13;96610.31;4968980;28;20026;-83
2023/03/10 04:26:08;;;;;;;9.50;7.57;;;;;;;6.74;72.72;96600.53;4969384;28;20051;-83
2023/03/10 04:28:34;;;;;;;10.55;6.72;;;;;;;6.72;72.46;96589.97;4969550;28;20077;-83
2023/03/10 04:30:59;;;;;;;6.88;4.32;;;;;;;6.72;72.63;96580.97;4969089;28;20022;-83
2023/03/10 04:33:25;;;;;;;7.35;5.88;;;;;;;6.70;72.50;96578.56;4969381;28;20128;-83
2023/03/10 04:35:51;;;;;;;8.95;5.25;;;;;;;6.69;72.27;96572.31;4969647;28;20114;-83
2023/03/10 04:38:17;;;;;;;9.65;6.85;;;;;;;6.70;72.89;96578.56;4969107;28;20029;-83
2023/03/10 04:40:42;;;;;;;9.32;6.00;;;;;;;6.68;72.42;96570.69;4969332;28;20031;-83
2023/03/10 04:43:07;;;;;;;7.80;5.70;;;;;;;6.69;72.54;96560.63;4969070;28;20058;-83
2023/03/10 04:45:33;;;;;;;8.18;5.88;;;;;;;6.68;72.59;96567.97;4970818;28;20015;-83
2023/03/10 04:47:58;;;;;;;9.68;5.75;;;;;;;6.65;72.71;96563.16;4974304;28;20019;-83
2023/03/10 04:50:24;;;;;;;8.30;5.57;;;;;;;6.66;72.67;96559.31;4976426;28;20022;-83
2023/03/10 04:52:49;;;;;;;8.73;5.80;;;;;;;6.66;73.06;96547.63;4972931;28;20130;-83
2023/03/10 04:55:15;;;;;;;10.75;6.18;;;;;;;6.63;72.61;96548.28;4978003;28;20057;-83
2023/03/10 04:57:40;;;;;;;9.73;6.55;;;;;;;6.59;72.37;96556.25;4973325;28;20093;-83
2023/03/10 05:00:11;;;;;;;12.02;6.50;;;;;;;6.58;72.89;96540.25;4973334;28;20035;-83
2023/03/10 05:02:37;;;;;;;10.23;6.00;;;;;;;6.58;72.70;96540.25;4971283;28;20109;-83
2023/03/10 05:05:03;;;;;;;9.35;5.93;;;;;;;6.57;72.64;96541.38;4972669;28;20241;-83
2023/03/10 05:07:29;;;;;;;10.18;6.32;;;;;;;6.56;72.77;96532.38;4971185;28;20493;-83
2023/03/10 05:09:54;;;;;;;10.60;5.82;;;;;;;6.58;72.31;96535.59;4983291;28;20383;-82
2023/03/10 05:12:20;;;;;;;11.00;5.43;;;;;;;6.59;72.64;96529.03;4972583;28;20030;-82
2023/03/10 05:14:45;;;;;;;10.98;6.22;;;;;;;6.62;72.61;96528.38;4972818;28;20034;-82
2023/03/10 05:17:11;;;;;;;9.73;6.72;;;;;;;6.65;72.79;96537.84;4987731;28;20365;-82
2023/03/10 05:19:37;;;;;;;11.45;7.25;;;;;;;6.66;72.68;96534.03;4975475;28;20019;-82
2023/03/10 05:22:04;;;;;;;11.07;6.07;;;;;;;6.67;72.69;96535.63;4972239;28;20019;-83
2023/03/10 05:24:30;;;;;;;9.35;4.90;;;;;;;6.67;73.00;96525.50;4972212;28;20066;-82
2023/03/10 05:26:56;;;;;;;10.73;4.72;;;;;;;6.69;72.61;96517.03;4972438;28;20070;-82
2023/03/10 05:29:21;;;;;;;8.23;4.97;;;;;;;6.72;73.01;96521.03;4973571;28;20015;-82
2023/03/10 05:31:47;;;;;;;9.75;5.47;;;;;;;6.77;72.89;96509.97;4972704;28;20033;-83
2023/03/10 05:34:13;;;;;;;10.13;5.40;;;;;;;6.81;72.97;96505.50;4972261;28;20025;-83
2023/03/10 05:36:39;;;;;;;9.80;5.10;;;;;;;6.88;72.98;96505.84;4977604;28;20035;-83
2023/03/10 05:39:05;;;;;;;11.15;6.05;;;;;;;6.94;72.91;96501.00;4971757;28;20026;-82
2023/03/10 05:41:31;;;;;;;11.23;6.40;;;;;;;6.98;72.66;96493.81;4970339;28;20041;-82
2023/03/10 05:43:57;;;;;;;11.98;7.53;;;;;;;7.02;73.11;96491.22;4974338;28;20058;-85
2023/03/10 05:46:23;;;;;;;13.98;9.55;;;;;;;7.05;72.97;96477.78;4981999;28;20374;-82
2023/03/10 05:48:48;;;;;;;18.73;11.13;;;;;;;7.08;72.93;96482.59;4992550;28;20034;-80
2023/03/10 05:51:14;;;;;;;31.40;14.23;;;;;;;7.13;73.07;96481.59;4992951;28;20030;-80
2023/03/10 05:53:40;;;;;;;22.65;11.88;;;;;;;7.19;72.76;96479.50;4992122;28;20041;-80
2023/03/10 05:56:08;;;;;;;20.40;10.65;;;;;;;7.24;73.04;96471.97;4991587;28;20030;-80
2023/03/10 05:58:34;;;;;;;15.73;9.73;;;;;;;7.32;72.85;96466.84;4988223;28;20038;-80
2023/03/10 06:00:59;;;;;;;17.55;10.43;;;;;;;7.37;72.80;96444.81;4992148;28;20034;-80
2023/03/10 06:03:27;;;;;;;12.77;8.48;;;;;;;7.42;73.02;96445.47;4983355;28;20041;-80
2023/03/10 06:05:52;;;;;;;13.43;7.50;;;;;;;7.49;72.47;96444.94;4979590;28;20046;-80
2023/03/10 06:08:18;;;;;;;15.32;8.35;;;;;;;7.56;72.40;96439.81;4973004;28;20030;-80
2023/03/10 06:10:43;;;;;;;14.90;9.40;;;;;;;7.62;72.58;96445.09;4971503;28;20035;-80
2023/03/10 06:13:09;;;;;;;16.98;9.05;;;;;;;7.70;72.94;96445.03;4971550;28;20047;-80
2023/03/10 06:15:34;;;;;;;30.42;14.05;;;;;;;7.77;72.62;96441.78;4972506;28;20073;-80
2023/03/10 06:18:00;;;;;;;71.68;27.00;;;;;;;7.85;72.87;96445.63;4979166;28;20395;-80
2023/03/10 06:20:25;;;;;;;71.53;26.35;;;;;;;7.94;72.41;96442.84;4980570;28;20082;-81
2023/03/10 06:22:52;;;;;;;71.97;27.98;;;;;;;7.99;72.52;96443.47;4972701;28;20038;-80
2023/03/10 06:25:18;;;;;;;74.80;29.23;;;;;;;8.08;72.13;96445.34;4984693;28;20042;-80
2023/03/10 06:27:43;;;;;;;45.42;20.05;;;;;;;8.12;72.53;96427.19;4972201;28;20027;-80
2023/03/10 06:30:09;;;;;;;34.22;17.40;;;;;;;8.16;72.56;96417.22;4972543;28;20031;-81
2023/03/10 06:32:35;;;;;;;30.35;14.27;;;;;;;8.26;72.28;96424.22;4985514;28;20049;-81
2023/03/10 06:35:00;;;;;;;89.10;25.55;;;;;;;8.32;72.23;96428.34;4975036;28;20038;-80
2023/03/10 06:37:26;;;;;;;62.55;18.70;;;;;;;8.38;72.04;96427.03;4972387;28;20038;-81
2023/03/10 06:39:52;;;;;;;70.15;23.85;;;;;;;8.42;71.49;96422.50;4979525;28;20026;-80
2023/03/10 06:42:17;;;;;;;50.63;20.92;;;;;;;8.48;70.98;96423.09;4991668;28;20045;-81
2023/03/10 06:44:43;;;;;;;19.20;9.20;;;;;;;8.51;70.94;96410.75;4983965;28;20399;-81
2023/03/10 06:47:08;;;;;;;18.40;9.00;;;;;;;8.54;70.98;96410.09;4972183;28;20109;-81
2023/03/10 06:49:34;;;;;;;28.40;13.65;;;;;;;8.57;71.68;96402.00;4972370;28;20042;-80
2023/03/10 06:51:59;;;;;;;32.83;16.17;;;;;;;8.60;71.14;96401.34;4972785;28;20038;-81
2023/03/10 06:54:25;;;;;;;28.90;13.98;;;;;;;8.64;71.11;96399.53;4970401;28;20019;-79
2023/03/10 06:56:51;;;;;;;19.67;10.50;;;;;;;8.67;70.64;96395.34;4972141;28;20126;-78
2023/03/10 06:59:16;;;;;;;18.27;9.98;;;;;;;8.70;70.48;96382.94;4970670;28;20038;-81
2023/03/10 07:01:42;;;;;;;18.33;9.68;;;;;;;8.74;70.29;96389.34;4969048;28;20049;-80
2023/03/10 07:04:09;;;;;;;13.10;7.40;;;;;;;8.79;70.54;96389.13;4970713;28;20411;-81
2023/03/10 07:06:35;;;;;;;13.60;7.38;;;;;;;8.85;70.78;96387.00;4970568;28;20625;-82
2023/03/10 07:09:00;;;;;;;18.52;8.90;;;;;;;8.93;70.64;96391.59;4970428;28;20117;-82
2023/03/10 07:11:26;;;;;;;11.35;6.18;;;;;;;9.01;70.51;96390.69;4974234;28;20027;-83
2023/03/10 07:13:52;;;;;;;10.73;6.65;;;;;;;9.13;70.13;96391.84;4967524;28;20062;-82
2023/03/10 07:16:18;;;;;;;13.18;6.57;;;;;;;9.26;71.01;96384.47;4967794;28;20121;-83
2023/03/10 07:18:43;;;;;;;10.80;5.80;;;;;;;9.36;70.43;96386.78;4971153;28;20054;-82
2023/03/10 07:21:12;;;;;;;8.23;5.22;;;;;;;9.44;70.08;96385.88;4971745;28;20107;-83
2023/03/10 07:23:38;;;;;;;10.57;6.07;;;;;;;9.55;70.18;96388.19;4966644;28;20085;-79
2023/03/10 07:26:06;;;;;;;12.05;5.90;;;;;;;9.63;69.45;96374.41;4968664;28;20047;-81
2023/03/10 07:28:33;;;;;;;10.68;5.97;;;;;;;9.74;69.91;96377.47;4969487;28;20019;-79
2023/03/10 07:31:02;;;;;;;11.00;5.60;;;;;;;9.84;69.48;96376.22;4970491;28;20027;-81
2023/03/10 07:33:28;;;;;;;10.82;5.85;;;;;;;9.93;69.48;96376.13;4974170;28;20035;-82
2023/03/10 07:35:54;;;;;;;10.07;3.97;;;;;;;10.01;69.35;96366.94;4975722;28;20030;-83
2023/03/10 07:38:19;;;;;;;9.10;3.65;;;;;;;10.07;69.03;96371.06;4970795;28;20049;-82
2023/03/10 07:40:45;;;;;;;7.68;3.92;;;;;;;10.14;68.60;96373.25;4970997;28;20042;-82
2023/03/10 07:43:10;;;;;;;7.85;4.00;;;;;;;10.20;68.26;96360.09;4970404;28;20031;-80
2023/03/10 07:45:36;;;;;;;8.68;4.30;;;;;;;10.26;68.16;96356.75;4970468;28;20031;-82
2023/03/10 07:48:02;;;;;;;8.02;4.43;;;;;;;10.31;68.38;96363.97;4970952;28;20027;-81
2023/03/10 07:50:27;;;;;;;11.73;5.20;;;;;;;10.36;68.07;96366.47;4970896;28;20513;-81
2023/03/10 07:52:54;;;;;;;11.05;4.88;;;;;;;10.41;67.79;96371.72;4977253;28;20090;-80
2023/03/10 07:55:20;;;;;;;8.57;4.55;;;;;;;10.46;67.84;96365.19;4973204;28;20034;-80
2023/03/10 07:57:46;;;;;;;9.00;3.92;;;;;;;10.50;68.30;96368.84;4970562;28;20038;-81
2023/03/10 08:00:12;;;;;;;7.40;3.60;;;;;;;10.56;67.47;96377.63;4968948;28;20023;-79
2023/03/10 08:02:38;;;;;;;7.97;4.20;;;;;;;10.60;66.65;96377.72;4969217;28;21549;-82
2023/03/10 08:05:03;;;;;;;8.02;3.83;;;;;;;10.64;66.51;96378.59;4970160;28;20100;-81
2023/03/10 08:07:30;;;;;;;11.20;5.70;;;;;;;10.67;66.43;96378.72;4971592;28;20368;-79
2023/03/10 08:09:56;;;;;;;9.65;4.68;;;;;;;10.73;66.10;96376.53;4970194;28;20402;-82
2023/03/10 08:12:21;;;;;;;12.05;4.80;;;;;;;10.77;66.29;96376.66;4969776;28;20027;-82
2023/03/10 08:14:47;;;;;;;9.63;4.55;;;;;;;10.82;66.52;96368.16;4969380;28;20071;-80
2023/03/10 08:17:14;;;;;;;10.48;4.90;;;;;;;10.86;66.20;96372.59;4970488;28;20039;-84
2023/03/10 08:19:39;;;;;;;12.55;4.68;;;;;;;10.91;66.48;96366.06;4969297;28;20093;-82
2023/03/10 08:22:05;;;;;;;11.80;5.30;;;;;;;10.93;65.67;96363.75;4970270;28;20018;-82
2023/03/10 08:24:30;;;;;;;13.55;6.53;;;;;;;10.98;66.09;96363.50;4970195;28;20415;-82
2023/03/10 08:26:56;;;;;;;12.25;5.82;;;;;;;11.05;65.32;96367.59;4971473;28;20069;-79
2023/03/10 08:29:21;;;;;;;13.05;4.65;;;;;;;11.14;64.91;96374.50;4972157;28;20042;-80
2023/03/10 08:31:47;;;;;;;10.75;4.40;;;;;;;11.21;63.10;96362.13;4971053;28;20037;-83
2023/03/10 08:34:14;;;;;;;8.27;4.22;;;;;;;11.27;63.99;96367.00;4970594;28;20022;-81
2023/03/10 08:36:40;;;;;;;8.35;4.43;;;;;;;11.36;63.88;96357.81;4972402;28;20502;-81
2023/03/10 08:39:07;;;;;;;9.88;4.32;;;;;;;11.46;63.95;96369.06;4969448;28;20031;-80
2023/03/10 08:41:35;;;;;;;5.97;3.30;;;;;;;11.57;62.62;96361.13;4980601;28;20042;-79
2023/03/10 08:44:01;;;;;;;7.83;2.90;;;;;;;11.67;61.89;96359.78;4977180;28;20043;-79
2023/03/10 08:46:29;;;;;;;6.57;3.00;;;;;;;11.74;62.89;96354.47;4969021;28;20684;-80
2023/03/10 08:48:55;;;;;;;4.53;2.83;;;;;;;11.86;62.13;96359.03;4969916;28;20169;-80
2023/03/10 08:51:21;;;;;;;6.47;3.35;;;;;;;11.96;61.69;96356.91;4970511;28;20034;-80
2023/03/10 08:53:48;;;;;;;6.90;2.80;;;;;;;12.03;62.21;96357.09;4969610;28;20023;-81
2023/03/10 08:56:15;;;;;;;7.15;3.13;;;;;;;12.10;61.24;96354.50;4974742;28;20085;-82
2023/03/10 08:58:40;;;;;;;4.97;3.10;;;;;;;12.17;61.00;96351.91;4971293;28;20027;-81
2023/03/10 09:01:06;;;;;;;5.05;2.78;;;;;;;12.26;61.57;96356.44;4968735;28;20455;-82
2023/03/10 09:03:34;;;;;;;5.47;2.45;;;;;;;12.35;60.60;96359.78;4969106;28;20015;-81
2023/03/10 09:06:00;;;;;;;5.22;2.97;;;;;;;12.42;61.42;96348.13;4967725;28;20026;-81
2023/03/10 09:08:25;;;;;;;5.90;3.45;;;;;;;12.49;61.54;96345.53;4968677;28;20570;-81
2023/03/10 09:10:51;;;;;;;6.63;2.92;;;;;;;12.56;60.87;96353.13;4969486;28;20118;-82
2023/03/10 09:13:16;;;;;;;7.60;3.58;;;;;;;12.62;59.93;96352.50;4969205;28;20023;-82
2023/03/10 09:15:42;;;;;;;6.03;3.63;;;;;;;12.68;59.88;96338.44;4969821;28;20454;-82
2023/03/10 09:18:08;;;;;;;8.13;4.28;;;;;;;12.72;60.40;96342.84;4970981;28;20053;-81
2023/03/10 09:20:35;;;;;;;10.00;4.93;;;;;;;12.81;60.55;96337.13;4968631;28;20102;-81
2023/03/10 09:23:01;;;;;;;13.88;6.72;;;;;;;12.86;60.05;96322.28;4968104;28;20475;-81
2023/03/10 09:25:28;;;;;;;11.35;4.88;;;;;;;12.90;59.71;96326.69;4967361;28;20043;-82
2023/03/10 09:27:53;;;;;;;8.68;4.32;;;;;;;12.95;60.27;96328.34;4965160;28;20521;-80
2023/03/10 09:30:19;;;;;;;7.75;3.88;;;;;;;13.02;59.87;96330.47;4968528;28;20039;-83
2023/03/10 09:32:44;;;;;;;9.13;4.07;;;;;;;13.03;59.56;96326.53;4968756;28;20527;-82
2023/03/10 09:35:10;;;;;;;6.80;4.15;;;;;;;13.07;60.13;96330.13;4971810;28;20039;-83
2023/03/10 09:37:36;;;;;;;12.18;4.30;;;;;;;13.09;59.89;96333.31;4971596;28;20495;-82
2023/03/10 09:40:04;;;;;;;7.25;3.50;;;;;;;13.14;59.60;96335.00;4972034;28;20042;-80
2023/03/10 09:42:40;;;;;;;8.45;4.40;;;;;;;13.16;59.56;96327.94;4971103;28;20035;-82
2023/03/10 09:45:22;;;;;;;8.88;4.32;;;;;;;13.19;60.40;96321.72;4979011;28;20096;-80
2023/03/10 09:48:02;;;;;;;10.38;4.63;;;;;;;13.24;60.24;96315.13;4982830;28;20566;-80
2023/03/10 09:50:41;;;;;;;8.88;3.83;;;;;;;13.27;60.33;96314.38;4970386;28;20054;-81
2023/03/10 09:53:31;;;;;;;11.35;5.10;;;;;;;13.39;60.73;96311.44;4985255;28;20089;-77
2023/03/10 09:55:57;;;;;;;25.90;11.43;;;;;;;13.54;60.88;96304.25;4969701;28;20526;-83
2023/03/10 09:58:37;;;;;;;19.48;8.00;;;;;;;13.67;60.68;96312.31;4985549;28;20045;-82
2023/03/10 10:01:05;;;;;;;40.05;17.05;;;;;;;13.85;60.71;96301.56;4971720;28;20022;-82
2023/03/10 10:03:41;;;;;;;12.15;5.20;;;;;;;14.00;60.21;96305.31;4987723;28;20371;-81
2023/03/10 10:06:10;;;;;;;8.40;3.97;;;;;;;14.13;60.25;96301.19;4985820;28;20038;-82
2023/03/10 10:08:50;;;;;;;13.18;4.68;;;;;;;14.29;59.66;96305.69;4987218;28;20035;-82
2023/03/10 10:11:16;;;;;;;6.65;3.40;;;;;;;14.41;57.81;96299.97;4975300;28;20035;-82
2023/03/10 10:13:42;;;;;;;8.35;3.65;;;;;;;14.50;56.58;96301.66;4985526;28;20103;-82
2023/03/10 10:16:23;;;;;;;8.20;3.83;;;;;;;14.54;57.05;96308.78;4984186;28;20038;-81
2023/03/10 10:19:04;;;;;;;8.52;3.97;;;;;;;14.63;56.90;96310.47;4984504;28;20034;-82
2023/03/10 10:22:06;;;;;;;9.27;3.95;;;;;;;14.71;57.30;96312.94;4971645;28;20015;-82
2023/03/10 10:24:32;;;;;;;9.02;3.92;;;;;;;14.81;56.69;96314.28;4931333;28;1220923;-85
2023/03/10 10:26:57;;;;;;;8.07;3.95;;;;;;;14.88;56.96;96314.31;4974645;28;20045;-84
2023/03/10 10:29:37;;;;;;;8.75;4.18;;;;;;;14.94;58.14;96305.72;4973045;28;20027;-83
2023/03/10 10:32:05;;;;;;;10.25;4.32;;;;;;;15.06;56.66;96299.16;4972598;28;20027;-81
2023/03/10 10:34:31;;;;;;;8.02;3.95;;;;;;;15.07;56.41;96300.75;4971021;28;20031;-81
2023/03/10 10:36:57;;;;;;;6.25;4.13;;;;;;;15.07;56.30;96301.50;4970877;28;20031;-78
2023/03/10 10:39:26;;;;;;;6.45;3.63;;;;;;;15.11;56.25;96304.31;4968298;28;20165;-83
2023/03/10 10:41:52;;;;;;;6.63;3.50;;;;;;;15.14;56.25;96309.88;4971796;28;20038;-82
2023/03/10 10:44:18;;;;;;;8.35;3.13;;;;;;;15.20;55.49;96295.72;4970607;28;20031;-85
2023/03/10 10:46:56;;;;;;;7.18;3.38;;;;;;;15.22;56.19;96301.66;4971149;28;20062;-82
2023/03/10 10:49:27;;;;;;;7.78;3.47;;;;;;;15.28;55.60;96298.16;4967894;28;20054;-85
2023/03/10 10:52:18;;;;;;;5.15;3.10;;;;;;;15.32;55.60;96296.25;4973527;28;20085;-85
2023/03/10 10:54:55;;;;;;;6.93;3.35;;;;;;;15.38;55.53;96307.72;4972308;28;20027;-84
2023/03/10 10:57:26;;;;;;;5.72;3.10;;;;;;;15.45;54.85;96287.66;4973008;28;20042;-83
2023/03/10 10:59:52;;;;;;;5.40;3.17;;;;;;;15.48;52.24;96312.56;4972986;28;20041;-84
2023/03/10 11:02:31;;;;;;;5.95;3.30;;;;;;;15.44;52.77;96275.81;4987466;28;20031;-81
2023/03/10 11:05:23;;;;;;;5.88;3.30;;;;;;;15.43;52.80;96284.50;4992576;28;20030;-81
2023/03/10 11:07:49;;;;;;;6.82;3.33;;;;;;;15.44;53.13;96275.81;4985364;28;20027;-81
2023/03/10 11:10:17;;;;;;;5.82;2.78;;;;;;;15.46;53.11;96272.69;4973444;28;20487;-82
2023/03/10 11:12:46;;;;;;;6.82;3.20;;;;;;;15.55;54.06;96269.59;4972319;28;20027;-75
2023/03/10 11:15:25;;;;;;;5.40;3.00;;;;;;;15.66;53.00;96264.94;4969853;28;20039;-82
2023/03/10 11:18:16;;;;;;;4.40;3.10;;;;;;;15.72;51.91;96265.38;4980051;28;20043;-78
2023/03/10 11:21:12;;;;;;;6.10;3.13;;;;;;;15.73;51.15;96256.69;4971247;28;20045;-82
2023/03/10 11:24:00;;;;;;;5.80;2.95;;;;;;;15.75;51.79;96245.25;4972259;28;20470;-81
2023/03/10 11:27:05;;;;;;;5.35;2.80;;;;;;;15.79;51.09;96246.06;4972320;28;20495;-82
2023/03/10 11:30:04;;;;;;;4.30;3.10;;;;;;;15.81;50.80;96242.91;4952135;28;20089;-81
2023/03/10 11:33:04;;;;;;;8.10;4.20;;;;;;;15.82;51.40;96234.25;4973031;28;20085;-82
2023/03/10 11:35:45;;;;;;;6.32;3.47;;;;;;;15.88;50.29;96249.31;4974030;28;20031;-82
2023/03/10 11:38:41;;;;;;;5.82;3.53;;;;;;;15.89;50.85;96245.38;4974985;28;20030;-82